sensor_id;sensor_type;location;lat;lon;timestamp;P1;durP1;ratioP1;P2;durP2;ratioP2
21780;SDS011;52576;53.614;9.894;2022-07-29T00:00:15;5.65;;;1.52;;
21780;SDS011;52576;53.614;9.894;2022-07-29T00:01:17;7.95;;;1.92;;
21780;SDS011;52576;53.614;9.894;2022-07-29T00:02:20;4.07;;;1.50;;
21780;SDS011;52576;53.614;9.894;2022-07-29T00:03:22;5.90;;;1.80;;
21780;SDS011;52576;53.614;9.894;2022-07-29T00:04:25;4.05;;;1.52;;
21780;SDS011;52576;53.614;9.894;2022-07-29T00:05:27;7.40;;;1.90;;
21780;SDS011;52576;53.614;9.894;2022-07-29T00:06:32;4.53;;;1.60;;
21780;SDS011;52576;53.614;9.894;2022-07-29T00:07:34;7.65;;;2.03;;
21780;SDS011;52576;53.614;9.894;2022-07-29T00:08:37;4.68;;;1.60;;
21780;SDS011;52576;53.614;9.894;2022-07-29T00:09:39;4.57;;;1.63;;
21780;SDS011;52576;53.614;9.894;2022-07-29T00:10:52;6.78;;;2.00;;
21780;SDS011;52576;53.614;9.894;2022-07-29T00:11:55;6.47;;;1.83;;
21780;SDS011;52576;53.614;9.894;2022-07-29T00:13:00;5.38;;;1.90;;
21780;SDS011;52576;53.614;9.894;2022-07-29T00:14:03;6.60;;;2.08;;
21780;SDS011;52576;53.614;9.894;2022-07-29T00:15:07;4.43;;;1.70;;
21780;SDS011;52576;53.614;9.894;2022-07-29T00:16:11;5.65;;;1.90;;
21780;SDS011;52576;53.614;9.894;2022-07-29T00:17:13;4.60;;;1.55;;
21780;SDS011;52576;53.614;9.894;2022-07-29T00:18:19;2.80;;;1.45;;
21780;SDS011;52576;53.614;9.894;2022-07-29T00:19:21;6.28;;;1.70;;
21780;SDS011;52576;53.614;9.894;2022-07-29T00:20:25;4.75;;;1.75;;
21780;SDS011;52576;53.614;9.894;2022-07-29T00:21:27;5.95;;;1.63;;
21780;SDS011;52576;53.614;9.894;2022-07-29T00:22:32;3.78;;;1.42;;
21780;SDS011;52576;53.614;9.894;2022-07-29T00:23:34;6.43;;;1.92;;
21780;SDS011;52576;53.614;9.894;2022-07-29T00:24:37;7.85;;;2.22;;
21780;SDS011;52576;53.614;9.894;2022-07-29T00:25:39;5.13;;;2.10;;
21780;SDS011;52576;53.614;9.894;2022-07-29T00:26:42;4.57;;;2.00;;
21780;SDS011;52576;53.614;9.894;2022-07-29T00:27:44;3.72;;;1.80;;
21780;SDS011;52576;53.614;9.894;2022-07-29T00:28:48;4.03;;;1.60;;
21780;SDS011;52576;53.614;9.894;2022-07-29T00:29:50;7.63;;;1.83;;
21780;SDS011;52576;53.614;9.894;2022-07-29T00:30:53;4.95;;;1.80;;
21780;SDS011;52576;53.614;9.894;2022-07-29T00:31:55;6.28;;;2.00;;
21780;SDS011;52576;53.614;9.894;2022-07-29T00:32:58;5.60;;;1.85;;
21780;SDS011;52576;53.614;9.894;2022-07-29T00:34:00;8.48;;;2.10;;
21780;SDS011;52576;53.614;9.894;2022-07-29T00:35:04;6.72;;;1.92;;
21780;SDS011;52576;53.614;9.894;2022-07-29T00:36:25;4.80;;;1.70;;
21780;SDS011;52576;53.614;9.894;2022-07-29T00:37:27;6.40;;;2.00;;
21780;SDS011;52576;53.614;9.894;2022-07-29T00:38:30;7.85;;;2.05;;
21780;SDS011;52576;53.614;9.894;2022-07-29T00:39:33;4.30;;;2.10;;
21780;SDS011;52576;53.614;9.894;2022-07-29T00:40:35;7.22;;;2.00;;
21780;SDS011;52576;53.614;9.894;2022-07-29T00:41:43;3.58;;;1.80;;
21780;SDS011;52576;53.614;9.894;2022-07-29T00:42:46;5.20;;;1.80;;
21780;SDS011;52576;53.614;9.894;2022-07-29T00:43:50;13.25;;;2.20;;
21780;SDS011;52576;53.614;9.894;2022-07-29T00:44:52;5.80;;;2.17;;
21780;SDS011;52576;53.614;9.894;2022-07-29T00:45:55;5.53;;;1.83;;
21780;SDS011;52576;53.614;9.894;2022-07-29T00:46:57;4.93;;;2.00;;
21780;SDS011;52576;53.614;9.894;2022-07-29T00:48:00;5.95;;;2.03;;
21780;SDS011;52576;53.614;9.894;2022-07-29T00:49:02;8.88;;;2.00;;
21780;SDS011;52576;53.614;9.894;2022-07-29T00:50:07;4.60;;;1.75;;
21780;SDS011;52576;53.614;9.894;2022-07-29T00:51:11;5.22;;;1.85;;
21780;SDS011;52576;53.614;9.894;2022-07-29T00:52:15;4.20;;;1.73;;
21780;SDS011;52576;53.614;9.894;2022-07-29T00:53:17;6.55;;;1.92;;
21780;SDS011;52576;53.614;9.894;2022-07-29T00:54:23;5.38;;;1.70;;
21780;SDS011;52576;53.614;9.894;2022-07-29T00:55:26;4.30;;;1.85;;
21780;SDS011;52576;53.614;9.894;2022-07-29T00:56:29;4.50;;;1.75;;
21780;SDS011;52576;53.614;9.894;2022-07-29T00:57:32;4.82;;;1.77;;
21780;SDS011;52576;53.614;9.894;2022-07-29T00:58:35;5.63;;;2.15;;
21780;SDS011;52576;53.614;9.894;2022-07-29T00:59:37;2.88;;;1.80;;
21780;SDS011;52576;53.614;9.894;2022-07-29T01:00:40;5.72;;;1.80;;
21780;SDS011;52576;53.614;9.894;2022-07-29T01:01:45;6.32;;;2.20;;
21780;SDS011;52576;53.614;9.894;2022-07-29T01:02:48;5.07;;;1.90;;
21780;SDS011;52576;53.614;9.894;2022-07-29T01:03:51;5.85;;;1.88;;
21780;SDS011;52576;53.614;9.894;2022-07-29T01:04:53;4.70;;;2.00;;
21780;SDS011;52576;53.614;9.894;2022-07-29T01:05:58;9.32;;;2.08;;
21780;SDS011;52576;53.614;9.894;2022-07-29T01:07:02;3.17;;;1.80;;
21780;SDS011;52576;53.614;9.894;2022-07-29T01:08:05;5.57;;;1.73;;
21780;SDS011;52576;53.614;9.894;2022-07-29T01:09:09;5.45;;;2.03;;
21780;SDS011;52576;53.614;9.894;2022-07-29T01:10:14;6.55;;;2.08;;
21780;SDS011;52576;53.614;9.894;2022-07-29T01:11:18;6.47;;;1.83;;
21780;SDS011;52576;53.614;9.894;2022-07-29T01:12:21;5.18;;;1.92;;
21780;SDS011;52576;53.614;9.894;2022-07-29T01:13:26;6.10;;;2.00;;
21780;SDS011;52576;53.614;9.894;2022-07-29T01:14:30;9.15;;;1.95;;
21780;SDS011;52576;53.614;9.894;2022-07-29T01:15:33;3.95;;;1.63;;
21780;SDS011;52576;53.614;9.894;2022-07-29T01:16:51;5.18;;;1.90;;
21780;SDS011;52576;53.614;9.894;2022-07-29T01:17:59;4.45;;;2.10;;
21780;SDS011;52576;53.614;9.894;2022-07-29T01:19:07;5.45;;;1.80;;
21780;SDS011;52576;53.614;9.894;2022-07-29T01:20:26;4.25;;;1.90;;
21780;SDS011;52576;53.614;9.894;2022-07-29T01:21:44;6.13;;;2.10;;
21780;SDS011;52576;53.614;9.894;2022-07-29T01:23:11;5.75;;;1.92;;
21780;SDS011;52576;53.614;9.894;2022-07-29T01:24:39;8.43;;;2.35;;
21780;SDS011;52576;53.614;9.894;2022-07-29T01:26:12;5.07;;;2.08;;
21780;SDS011;52576;53.614;9.894;2022-07-29T01:27:38;4.43;;;1.80;;
21780;SDS011;52576;53.614;9.894;2022-07-29T01:28:51;5.47;;;1.75;;
21780;SDS011;52576;53.614;9.894;2022-07-29T01:30:08;5.18;;;1.80;;
21780;SDS011;52576;53.614;9.894;2022-07-29T01:31:16;4.95;;;1.70;;
21780;SDS011;52576;53.614;9.894;2022-07-29T01:32:28;7.82;;;2.05;;
21780;SDS011;52576;53.614;9.894;2022-07-29T01:33:35;4.68;;;2.38;;
21780;SDS011;52576;53.614;9.894;2022-07-29T01:34:52;4.03;;;1.70;;
21780;SDS011;52576;53.614;9.894;2022-07-29T01:35:58;5.20;;;1.90;;
21780;SDS011;52576;53.614;9.894;2022-07-29T01:37:05;6.25;;;2.33;;
21780;SDS011;52576;53.614;9.894;2022-07-29T01:38:15;6.90;;;2.08;;
21780;SDS011;52576;53.614;9.894;2022-07-29T01:39:23;6.53;;;1.95;;
21780;SDS011;52576;53.614;9.894;2022-07-29T01:40:34;3.97;;;1.75;;
21780;SDS011;52576;53.614;9.894;2022-07-29T01:41:42;4.65;;;1.98;;
21780;SDS011;52576;53.614;9.894;2022-07-29T01:42:52;5.25;;;2.42;;
21780;SDS011;52576;53.614;9.894;2022-07-29T01:43:59;5.22;;;1.95;;
21780;SDS011;52576;53.614;9.894;2022-07-29T01:45:06;6.13;;;1.70;;
21780;SDS011;52576;53.614;9.894;2022-07-29T01:46:13;4.40;;;1.77;;
21780;SDS011;52576;53.614;9.894;2022-07-29T01:47:21;5.95;;;2.13;;
21780;SDS011;52576;53.614;9.894;2022-07-29T01:48:30;5.45;;;2.10;;
21780;SDS011;52576;53.614;9.894;2022-07-29T01:49:39;7.18;;;2.08;;
21780;SDS011;52576;53.614;9.894;2022-07-29T01:50:46;3.80;;;1.70;;
21780;SDS011;52576;53.614;9.894;2022-07-29T01:51:52;5.18;;;1.88;;
21780;SDS011;52576;53.614;9.894;2022-07-29T01:53:00;5.35;;;1.98;;
21780;SDS011;52576;53.614;9.894;2022-07-29T01:54:06;4.25;;;1.90;;
21780;SDS011;52576;53.614;9.894;2022-07-29T01:55:13;4.68;;;1.83;;
21780;SDS011;52576;53.614;9.894;2022-07-29T01:56:22;8.02;;;1.90;;
21780;SDS011;52576;53.614;9.894;2022-07-29T01:57:27;5.88;;;1.65;;
21780;SDS011;52576;53.614;9.894;2022-07-29T01:58:33;7.50;;;1.90;;
21780;SDS011;52576;53.614;9.894;2022-07-29T01:59:39;4.93;;;2.10;;
21780;SDS011;52576;53.614;9.894;2022-07-29T02:00:44;5.18;;;1.90;;
21780;SDS011;52576;53.614;9.894;2022-07-29T02:01:48;8.85;;;1.92;;
21780;SDS011;52576;53.614;9.894;2022-07-29T02:02:55;3.30;;;1.70;;
21780;SDS011;52576;53.614;9.894;2022-07-29T02:03:59;5.10;;;1.70;;
21780;SDS011;52576;53.614;9.894;2022-07-29T02:05:04;5.93;;;1.80;;
21780;SDS011;52576;53.614;9.894;2022-07-29T02:06:11;10.18;;;2.10;;
21780;SDS011;52576;53.614;9.894;2022-07-29T02:07:18;5.25;;;1.80;;
21780;SDS011;52576;53.614;9.894;2022-07-29T02:08:23;5.72;;;2.00;;
21780;SDS011;52576;53.614;9.894;2022-07-29T02:09:27;6.90;;;2.20;;
21780;SDS011;52576;53.614;9.894;2022-07-29T02:10:32;4.05;;;1.80;;
21780;SDS011;52576;53.614;9.894;2022-07-29T02:11:35;4.68;;;2.10;;
21780;SDS011;52576;53.614;9.894;2022-07-29T02:12:40;7.25;;;2.00;;
21780;SDS011;52576;53.614;9.894;2022-07-29T02:13:52;6.18;;;1.85;;
21780;SDS011;52576;53.614;9.894;2022-07-29T02:14:59;6.10;;;1.98;;
21780;SDS011;52576;53.614;9.894;2022-07-29T02:16:03;4.25;;;1.92;;
21780;SDS011;52576;53.614;9.894;2022-07-29T02:17:09;5.60;;;2.10;;
21780;SDS011;52576;53.614;9.894;2022-07-29T02:18:15;3.80;;;1.85;;
21780;SDS011;52576;53.614;9.894;2022-07-29T02:19:21;7.82;;;2.13;;
21780;SDS011;52576;53.614;9.894;2022-07-29T02:20:26;7.35;;;2.03;;
21780;SDS011;52576;53.614;9.894;2022-07-29T02:21:30;5.18;;;1.90;;
21780;SDS011;52576;53.614;9.894;2022-07-29T02:22:35;5.03;;;1.90;;
21780;SDS011;52576;53.614;9.894;2022-07-29T02:23:40;4.10;;;1.95;;
21780;SDS011;52576;53.614;9.894;2022-07-29T02:24:52;7.32;;;2.22;;
21780;SDS011;52576;53.614;9.894;2022-07-29T02:25:56;5.93;;;1.98;;
21780;SDS011;52576;53.614;9.894;2022-07-29T02:27:01;6.18;;;2.03;;
21780;SDS011;52576;53.614;9.894;2022-07-29T02:28:05;5.50;;;2.72;;
21780;SDS011;52576;53.614;9.894;2022-07-29T02:29:09;8.85;;;2.30;;
21780;SDS011;52576;53.614;9.894;2022-07-29T02:30:16;6.95;;;2.00;;
21780;SDS011;52576;53.614;9.894;2022-07-29T02:31:21;4.68;;;2.10;;
21780;SDS011;52576;53.614;9.894;2022-07-29T02:32:27;6.07;;;2.10;;
21780;SDS011;52576;53.614;9.894;2022-07-29T02:33:31;6.43;;;2.13;;
21780;SDS011;52576;53.614;9.894;2022-07-29T02:34:35;4.45;;;1.88;;
21780;SDS011;52576;53.614;9.894;2022-07-29T02:35:41;6.07;;;2.17;;
21780;SDS011;52576;53.614;9.894;2022-07-29T02:36:46;6.40;;;2.20;;
21780;SDS011;52576;53.614;9.894;2022-07-29T02:37:52;5.90;;;2.55;;
21780;SDS011;52576;53.614;9.894;2022-07-29T02:39:10;6.25;;;1.95;;
21780;SDS011;52576;53.614;9.894;2022-07-29T02:40:15;4.82;;;2.00;;
21780;SDS011;52576;53.614;9.894;2022-07-29T02:41:18;5.00;;;1.98;;
21780;SDS011;52576;53.614;9.894;2022-07-29T02:42:26;8.77;;;2.03;;
21780;SDS011;52576;53.614;9.894;2022-07-29T02:43:29;3.70;;;2.05;;
21780;SDS011;52576;53.614;9.894;2022-07-29T02:44:34;9.98;;;2.10;;
21780;SDS011;52576;53.614;9.894;2022-07-29T02:45:39;5.55;;;2.20;;
21780;SDS011;52576;53.614;9.894;2022-07-29T02:46:42;9.05;;;2.33;;
21780;SDS011;52576;53.614;9.894;2022-07-29T02:47:49;6.57;;;2.28;;
21780;SDS011;52576;53.614;9.894;2022-07-29T02:48:55;5.57;;;2.05;;
21780;SDS011;52576;53.614;9.894;2022-07-29T02:50:02;7.35;;;2.40;;
21780;SDS011;52576;53.614;9.894;2022-07-29T02:51:11;5.65;;;2.20;;
21780;SDS011;52576;53.614;9.894;2022-07-29T02:52:39;7.85;;;1.80;;
21780;SDS011;52576;53.614;9.894;2022-07-29T02:53:45;6.47;;;2.15;;
21780;SDS011;52576;53.614;9.894;2022-07-29T02:54:54;5.97;;;2.10;;
21780;SDS011;52576;53.614;9.894;2022-07-29T02:56:00;9.20;;;2.45;;
21780;SDS011;52576;53.614;9.894;2022-07-29T02:57:08;5.53;;;2.17;;
21780;SDS011;52576;53.614;9.894;2022-07-29T02:58:21;6.95;;;2.08;;
21780;SDS011;52576;53.614;9.894;2022-07-29T02:59:30;6.78;;;2.17;;
21780;SDS011;52576;53.614;9.894;2022-07-29T03:00:38;6.25;;;2.00;;
21780;SDS011;52576;53.614;9.894;2022-07-29T03:01:42;6.38;;;2.42;;
21780;SDS011;52576;53.614;9.894;2022-07-29T03:02:47;6.13;;;2.42;;
21780;SDS011;52576;53.614;9.894;2022-07-29T03:03:53;5.32;;;2.42;;
21780;SDS011;52576;53.614;9.894;2022-07-29T03:04:56;4.47;;;2.28;;
21780;SDS011;52576;53.614;9.894;2022-07-29T03:06:01;4.90;;;2.10;;
21780;SDS011;52576;53.614;9.894;2022-07-29T03:07:05;4.82;;;2.28;;
21780;SDS011;52576;53.614;9.894;2022-07-29T03:08:09;7.50;;;2.67;;
21780;SDS011;52576;53.614;9.894;2022-07-29T03:09:14;8.40;;;2.60;;
21780;SDS011;52576;53.614;9.894;2022-07-29T03:10:17;8.43;;;2.28;;
21780;SDS011;52576;53.614;9.894;2022-07-29T03:11:21;8.77;;;2.75;;
21780;SDS011;52576;53.614;9.894;2022-07-29T03:12:43;9.57;;;2.88;;
21780;SDS011;52576;53.614;9.894;2022-07-29T03:13:47;7.55;;;2.60;;
21780;SDS011;52576;53.614;9.894;2022-07-29T03:14:50;5.35;;;2.30;;
21780;SDS011;52576;53.614;9.894;2022-07-29T03:15:56;7.57;;;2.50;;
21780;SDS011;52576;53.614;9.894;2022-07-29T03:16:59;6.10;;;2.50;;
21780;SDS011;52576;53.614;9.894;2022-07-29T03:18:03;8.80;;;3.00;;
21780;SDS011;52576;53.614;9.894;2022-07-29T03:19:06;6.85;;;2.40;;
21780;SDS011;52576;53.614;9.894;2022-07-29T03:20:10;5.72;;;2.58;;
21780;SDS011;52576;53.614;9.894;2022-07-29T03:21:14;4.90;;;2.28;;
21780;SDS011;52576;53.614;9.894;2022-07-29T03:22:17;8.57;;;2.38;;
21780;SDS011;52576;53.614;9.894;2022-07-29T03:23:19;3.92;;;1.90;;
21780;SDS011;52576;53.614;9.894;2022-07-29T03:24:24;6.68;;;2.17;;
21780;SDS011;52576;53.614;9.894;2022-07-29T03:25:28;6.88;;;2.28;;
21780;SDS011;52576;53.614;9.894;2022-07-29T03:26:31;8.60;;;2.20;;
21780;SDS011;52576;53.614;9.894;2022-07-29T03:27:33;3.63;;;1.80;;
21780;SDS011;52576;53.614;9.894;2022-07-29T03:28:36;6.32;;;2.00;;
21780;SDS011;52576;53.614;9.894;2022-07-29T03:29:40;7.18;;;2.05;;
21780;SDS011;52576;53.614;9.894;2022-07-29T03:30:50;6.28;;;2.10;;
21780;SDS011;52576;53.614;9.894;2022-07-29T03:31:53;5.60;;;2.03;;
21780;SDS011;52576;53.614;9.894;2022-07-29T03:32:57;7.82;;;2.38;;
21780;SDS011;52576;53.614;9.894;2022-07-29T03:33:59;9.27;;;2.45;;
21780;SDS011;52576;53.614;9.894;2022-07-29T03:35:02;4.40;;;2.22;;
21780;SDS011;52576;53.614;9.894;2022-07-29T03:36:05;8.65;;;2.53;;
21780;SDS011;52576;53.614;9.894;2022-07-29T03:37:08;6.97;;;2.67;;
21780;SDS011;52576;53.614;9.894;2022-07-29T03:38:11;12.10;;;2.50;;
21780;SDS011;52576;53.614;9.894;2022-07-29T03:39:14;9.57;;;2.95;;
21780;SDS011;52576;53.614;9.894;2022-07-29T03:40:22;6.22;;;2.70;;
21780;SDS011;52576;53.614;9.894;2022-07-29T03:41:27;9.38;;;2.70;;
21780;SDS011;52576;53.614;9.894;2022-07-29T03:42:32;10.30;;;3.53;;
21780;SDS011;52576;53.614;9.894;2022-07-29T03:43:37;8.98;;;3.35;;
21780;SDS011;52576;53.614;9.894;2022-07-29T03:44:50;8.13;;;3.40;;
21780;SDS011;52576;53.614;9.894;2022-07-29T03:45:54;9.07;;;3.10;;
21780;SDS011;52576;53.614;9.894;2022-07-29T03:47:01;8.55;;;3.13;;
21780;SDS011;52576;53.614;9.894;2022-07-29T03:48:07;6.65;;;2.90;;
21780;SDS011;52576;53.614;9.894;2022-07-29T03:49:12;9.25;;;3.15;;
21780;SDS011;52576;53.614;9.894;2022-07-29T03:50:17;5.78;;;2.95;;
21780;SDS011;52576;53.614;9.894;2022-07-29T03:51:22;9.07;;;3.47;;
21780;SDS011;52576;53.614;9.894;2022-07-29T03:52:34;6.28;;;3.17;;
21780;SDS011;52576;53.614;9.894;2022-07-29T03:53:37;9.43;;;3.90;;
21780;SDS011;52576;53.614;9.894;2022-07-29T03:54:40;11.20;;;3.70;;
21780;SDS011;52576;53.614;9.894;2022-07-29T03:55:44;7.15;;;2.80;;
21780;SDS011;52576;53.614;9.894;2022-07-29T03:56:48;8.88;;;3.03;;
21780;SDS011;52576;53.614;9.894;2022-07-29T03:57:54;7.78;;;2.83;;
21780;SDS011;52576;53.614;9.894;2022-07-29T03:58:58;7.68;;;2.97;;
21780;SDS011;52576;53.614;9.894;2022-07-29T04:00:02;7.45;;;2.60;;
21780;SDS011;52576;53.614;9.894;2022-07-29T04:01:06;8.43;;;2.90;;
21780;SDS011;52576;53.614;9.894;2022-07-29T04:02:10;11.07;;;3.40;;
21780;SDS011;52576;53.614;9.894;2022-07-29T04:03:13;7.35;;;3.08;;
21780;SDS011;52576;53.614;9.894;2022-07-29T04:04:16;8.15;;;3.03;;
21780;SDS011;52576;53.614;9.894;2022-07-29T04:05:19;10.85;;;3.03;;
21780;SDS011;52576;53.614;9.894;2022-07-29T04:06:22;10.63;;;2.95;;
21780;SDS011;52576;53.614;9.894;2022-07-29T04:07:24;7.32;;;2.80;;
21780;SDS011;52576;53.614;9.894;2022-07-29T04:08:27;10.65;;;2.90;;
21780;SDS011;52576;53.614;9.894;2022-07-29T04:09:30;5.47;;;2.40;;
21780;SDS011;52576;53.614;9.894;2022-07-29T04:10:33;5.07;;;2.47;;
21780;SDS011;52576;53.614;9.894;2022-07-29T04:11:36;10.38;;;2.90;;
21780;SDS011;52576;53.614;9.894;2022-07-29T04:13:00;10.43;;;2.78;;
21780;SDS011;52576;53.614;9.894;2022-07-29T04:14:03;7.38;;;3.10;;
21780;SDS011;52576;53.614;9.894;2022-07-29T04:15:06;13.90;;;3.58;;
21780;SDS011;52576;53.614;9.894;2022-07-29T04:16:10;8.13;;;2.85;;
21780;SDS011;52576;53.614;9.894;2022-07-29T04:17:13;7.78;;;2.72;;
21780;SDS011;52576;53.614;9.894;2022-07-29T04:18:16;7.97;;;3.40;;
21780;SDS011;52576;53.614;9.894;2022-07-29T04:19:18;11.00;;;2.80;;
21780;SDS011;52576;53.614;9.894;2022-07-29T04:20:21;8.02;;;2.85;;
21780;SDS011;52576;53.614;9.894;2022-07-29T04:21:23;8.30;;;3.10;;
21780;SDS011;52576;53.614;9.894;2022-07-29T04:22:26;10.65;;;4.43;;
21780;SDS011;52576;53.614;9.894;2022-07-29T04:23:29;8.98;;;3.67;;
21780;SDS011;52576;53.614;9.894;2022-07-29T04:24:34;9.63;;;2.90;;
21780;SDS011;52576;53.614;9.894;2022-07-29T04:25:36;11.38;;;3.88;;
21780;SDS011;52576;53.614;9.894;2022-07-29T04:26:40;14.00;;;2.97;;
21780;SDS011;52576;53.614;9.894;2022-07-29T04:27:42;9.13;;;2.85;;
21780;SDS011;52576;53.614;9.894;2022-07-29T04:28:59;9.90;;;3.33;;
21780;SDS011;52576;53.614;9.894;2022-07-29T04:30:03;9.23;;;3.40;;
21780;SDS011;52576;53.614;9.894;2022-07-29T04:31:06;11.25;;;3.50;;
21780;SDS011;52576;53.614;9.894;2022-07-29T04:32:09;8.02;;;2.95;;
21780;SDS011;52576;53.614;9.894;2022-07-29T04:33:13;7.38;;;2.90;;
21780;SDS011;52576;53.614;9.894;2022-07-29T04:34:16;6.80;;;2.55;;
21780;SDS011;52576;53.614;9.894;2022-07-29T04:35:19;8.73;;;3.10;;
21780;SDS011;52576;53.614;9.894;2022-07-29T04:36:23;8.60;;;3.10;;
21780;SDS011;52576;53.614;9.894;2022-07-29T04:37:30;10.02;;;2.85;;
21780;SDS011;52576;53.614;9.894;2022-07-29T04:38:33;8.95;;;3.55;;
21780;SDS011;52576;53.614;9.894;2022-07-29T04:39:35;9.77;;;3.92;;
21780;SDS011;52576;53.614;9.894;2022-07-29T04:40:38;12.15;;;3.83;;
21780;SDS011;52576;53.614;9.894;2022-07-29T04:41:40;12.07;;;6.05;;
21780;SDS011;52576;53.614;9.894;2022-07-29T04:42:43;8.27;;;3.38;;
21780;SDS011;52576;53.614;9.894;2022-07-29T04:43:48;11.30;;;2.53;;
21780;SDS011;52576;53.614;9.894;2022-07-29T04:44:52;8.30;;;2.83;;
21780;SDS011;52576;53.614;9.894;2022-07-29T04:45:54;9.38;;;2.80;;
21780;SDS011;52576;53.614;9.894;2022-07-29T04:46:57;10.27;;;3.35;;
21780;SDS011;52576;53.614;9.894;2022-07-29T04:47:59;6.40;;;2.70;;
21780;SDS011;52576;53.614;9.894;2022-07-29T04:49:04;8.27;;;2.70;;
21780;SDS011;52576;53.614;9.894;2022-07-29T04:50:07;4.45;;;2.30;;
21780;SDS011;52576;53.614;9.894;2022-07-29T04:51:10;7.50;;;2.85;;
21780;SDS011;52576;53.614;9.894;2022-07-29T04:52:12;8.50;;;2.75;;
21780;SDS011;52576;53.614;9.894;2022-07-29T04:53:15;9.10;;;2.97;;
21780;SDS011;52576;53.614;9.894;2022-07-29T04:54:17;5.47;;;2.45;;
21780;SDS011;52576;53.614;9.894;2022-07-29T04:55:20;7.95;;;2.80;;
21780;SDS011;52576;53.614;9.894;2022-07-29T04:56:23;5.97;;;2.97;;
21780;SDS011;52576;53.614;9.894;2022-07-29T04:57:26;7.15;;;3.00;;
21780;SDS011;52576;53.614;9.894;2022-07-29T04:58:28;10.90;;;2.83;;
21780;SDS011;52576;53.614;9.894;2022-07-29T04:59:31;5.07;;;2.95;;
21780;SDS011;52576;53.614;9.894;2022-07-29T05:00:33;6.85;;;2.90;;
21780;SDS011;52576;53.614;9.894;2022-07-29T05:01:36;9.18;;;2.95;;
21780;SDS011;52576;53.614;9.894;2022-07-29T05:02:38;8.60;;;2.92;;
21780;SDS011;52576;53.614;9.894;2022-07-29T05:03:42;5.70;;;2.70;;
21780;SDS011;52576;53.614;9.894;2022-07-29T05:04:45;8.63;;;3.03;;
21780;SDS011;52576;53.614;9.894;2022-07-29T05:05:48;5.95;;;2.55;;
21780;SDS011;52576;53.614;9.894;2022-07-29T05:06:50;9.98;;;2.88;;
21780;SDS011;52576;53.614;9.894;2022-07-29T05:07:53;9.10;;;2.75;;
21780;SDS011;52576;53.614;9.894;2022-07-29T05:08:56;7.40;;;3.13;;
21780;SDS011;52576;53.614;9.894;2022-07-29T05:09:59;8.88;;;2.50;;
21780;SDS011;52576;53.614;9.894;2022-07-29T05:11:01;7.13;;;2.70;;
21780;SDS011;52576;53.614;9.894;2022-07-29T05:12:14;7.60;;;2.95;;
21780;SDS011;52576;53.614;9.894;2022-07-29T05:13:16;6.93;;;2.80;;
21780;SDS011;52576;53.614;9.894;2022-07-29T05:14:19;5.18;;;2.65;;
21780;SDS011;52576;53.614;9.894;2022-07-29T05:15:21;7.88;;;3.33;;
21780;SDS011;52576;53.614;9.894;2022-07-29T05:16:25;7.68;;;2.58;;
21780;SDS011;52576;53.614;9.894;2022-07-29T05:17:27;11.45;;;3.20;;
21780;SDS011;52576;53.614;9.894;2022-07-29T05:18:30;8.25;;;3.28;;
21780;SDS011;52576;53.614;9.894;2022-07-29T05:19:32;6.38;;;2.42;;
21780;SDS011;52576;53.614;9.894;2022-07-29T05:20:41;7.20;;;2.88;;
21780;SDS011;52576;53.614;9.894;2022-07-29T05:21:44;10.57;;;3.47;;
21780;SDS011;52576;53.614;9.894;2022-07-29T05:22:46;11.15;;;2.70;;
21780;SDS011;52576;53.614;9.894;2022-07-29T05:23:50;8.82;;;2.88;;
21780;SDS011;52576;53.614;9.894;2022-07-29T05:24:52;7.35;;;2.83;;
21780;SDS011;52576;53.614;9.894;2022-07-29T05:25:55;8.32;;;2.97;;
21780;SDS011;52576;53.614;9.894;2022-07-29T05:26:57;11.20;;;3.00;;
21780;SDS011;52576;53.614;9.894;2022-07-29T05:28:00;8.38;;;2.92;;
21780;SDS011;52576;53.614;9.894;2022-07-29T05:29:02;9.80;;;2.78;;
21780;SDS011;52576;53.614;9.894;2022-07-29T05:30:06;13.05;;;3.63;;
21780;SDS011;52576;53.614;9.894;2022-07-29T05:31:09;12.25;;;3.50;;
21780;SDS011;52576;53.614;9.894;2022-07-29T05:32:11;7.95;;;3.50;;
21780;SDS011;52576;53.614;9.894;2022-07-29T05:33:15;6.57;;;2.80;;
21780;SDS011;52576;53.614;9.894;2022-07-29T05:34:37;10.02;;;4.03;;
21780;SDS011;52576;53.614;9.894;2022-07-29T05:35:53;6.63;;;2.83;;
21780;SDS011;52576;53.614;9.894;2022-07-29T05:37:01;8.20;;;3.90;;
21780;SDS011;52576;53.614;9.894;2022-07-29T05:38:03;7.80;;;3.28;;
21780;SDS011;52576;53.614;9.894;2022-07-29T05:39:07;6.38;;;3.17;;
21780;SDS011;52576;53.614;9.894;2022-07-29T05:40:10;7.90;;;3.40;;
21780;SDS011;52576;53.614;9.894;2022-07-29T05:41:13;7.20;;;3.60;;
21780;SDS011;52576;53.614;9.894;2022-07-29T05:42:15;8.27;;;3.83;;
21780;SDS011;52576;53.614;9.894;2022-07-29T05:43:18;10.10;;;4.20;;
21780;SDS011;52576;53.614;9.894;2022-07-29T05:44:20;9.50;;;3.80;;
21780;SDS011;52576;53.614;9.894;2022-07-29T05:45:25;7.78;;;3.03;;
21780;SDS011;52576;53.614;9.894;2022-07-29T05:46:28;12.68;;;3.70;;
21780;SDS011;52576;53.614;9.894;2022-07-29T05:47:32;8.35;;;2.80;;
21780;SDS011;52576;53.614;9.894;2022-07-29T05:48:34;5.88;;;2.65;;
21780;SDS011;52576;53.614;9.894;2022-07-29T05:49:37;9.55;;;3.50;;
21780;SDS011;52576;53.614;9.894;2022-07-29T05:50:39;9.48;;;3.47;;
21780;SDS011;52576;53.614;9.894;2022-07-29T05:51:49;9.02;;;2.83;;
21780;SDS011;52576;53.614;9.894;2022-07-29T05:52:52;9.32;;;2.95;;
21780;SDS011;52576;53.614;9.894;2022-07-29T05:53:55;8.18;;;3.17;;
21780;SDS011;52576;53.614;9.894;2022-07-29T05:54:57;15.93;;;8.07;;
21780;SDS011;52576;53.614;9.894;2022-07-29T05:56:02;9.43;;;4.63;;
21780;SDS011;52576;53.614;9.894;2022-07-29T05:57:04;6.65;;;3.22;;
21780;SDS011;52576;53.614;9.894;2022-07-29T05:58:08;10.00;;;3.63;;
21780;SDS011;52576;53.614;9.894;2022-07-29T05:59:10;7.13;;;3.00;;
21780;SDS011;52576;53.614;9.894;2022-07-29T06:00:18;9.45;;;3.50;;
21780;SDS011;52576;53.614;9.894;2022-07-29T06:01:20;11.60;;;4.22;;
21780;SDS011;52576;53.614;9.894;2022-07-29T06:02:24;8.73;;;3.92;;
21780;SDS011;52576;53.614;9.894;2022-07-29T06:03:26;8.82;;;4.72;;
21780;SDS011;52576;53.614;9.894;2022-07-29T06:04:29;7.18;;;2.80;;
21780;SDS011;52576;53.614;9.894;2022-07-29T06:05:32;10.23;;;4.97;;
21780;SDS011;52576;53.614;9.894;2022-07-29T06:06:34;10.23;;;3.13;;
21780;SDS011;52576;53.614;9.894;2022-07-29T06:07:38;6.38;;;2.97;;
21780;SDS011;52576;53.614;9.894;2022-07-29T06:08:51;6.93;;;3.17;;
21780;SDS011;52576;53.614;9.894;2022-07-29T06:09:53;11.70;;;3.13;;
21780;SDS011;52576;53.614;9.894;2022-07-29T06:10:56;9.52;;;3.20;;
21780;SDS011;52576;53.614;9.894;2022-07-29T06:11:58;8.10;;;3.33;;
21780;SDS011;52576;53.614;9.894;2022-07-29T06:13:02;11.73;;;3.33;;
21780;SDS011;52576;53.614;9.894;2022-07-29T06:14:04;9.50;;;3.25;;
21780;SDS011;52576;53.614;9.894;2022-07-29T06:15:07;7.47;;;3.10;;
21780;SDS011;52576;53.614;9.894;2022-07-29T06:16:10;9.77;;;2.90;;
21780;SDS011;52576;53.614;9.894;2022-07-29T06:17:30;7.97;;;2.65;;
21780;SDS011;52576;53.614;9.894;2022-07-29T06:18:33;6.97;;;2.90;;
21780;SDS011;52576;53.614;9.894;2022-07-29T06:19:35;7.25;;;2.92;;
21780;SDS011;52576;53.614;9.894;2022-07-29T06:20:38;7.35;;;3.00;;
21780;SDS011;52576;53.614;9.894;2022-07-29T06:21:42;7.85;;;3.20;;
21780;SDS011;52576;53.614;9.894;2022-07-29T06:22:46;6.78;;;2.65;;
21780;SDS011;52576;53.614;9.894;2022-07-29T06:23:49;8.57;;;2.75;;
21780;SDS011;52576;53.614;9.894;2022-07-29T06:24:51;9.88;;;2.80;;
21780;SDS011;52576;53.614;9.894;2022-07-29T06:25:55;6.30;;;3.00;;
21780;SDS011;52576;53.614;9.894;2022-07-29T06:26:57;7.97;;;3.67;;
21780;SDS011;52576;53.614;9.894;2022-07-29T06:28:00;9.57;;;2.88;;
21780;SDS011;52576;53.614;9.894;2022-07-29T06:29:02;9.80;;;3.13;;
21780;SDS011;52576;53.614;9.894;2022-07-29T06:30:05;9.38;;;3.10;;
21780;SDS011;52576;53.614;9.894;2022-07-29T06:31:09;7.90;;;2.70;;